Relevés horaires Gösgen (Suisse)


Relevés horaires à Gösgen - Mardi 10 Juill. 2018
Heure UTC1 Température [°C] Vent [km/h] Hum. [%] Pres.4 [hPa] Visi. [Km] Nébu. [octa] Préc.5 [mm] Cond.
2m. Res. Ros. Dir.2 Vit. Moy. Raf.3
23:00 17.6 17.6 9.4 ONO 5.6 -- -- 59 1016.2 -- -- -- --
22:00 18.5 18.5 10.4 NNO 11.1 -- -- 59 1016.2 -- -- -- --
21:00 19.4 19.4 11.0 N 5.6 -- 25.9 58 1015.9(1.1/3h) -- -- -- --
20:00 20.1 20.1 11.4 NNO 11.1 -- -- 57 1015.3 -- -- -- --
19:00 20.8 20.8 11.1 OSO 13.0 -- -- 54 1014.7 -- -- -- --
18:00 20.9 20.9 10.6 O 11.1 -- 42.6 52 1014.5(-0.1/3h) -- -- 0/12h
--
17:00 22.2 22.2 10.7 O 20.4 -- -- 48 1014.3 -- -- -- --
16:00 24.3 24.3 11.7 ONO 16.7 -- -- 45 1014 -- -- -- --
15:00 24.4 24.4 10.9 O 22.2 -- 37.0 43 1014.1(-1.1/3h) -- -- -- --
14:00 24.1 24.1 12.8 O 7.4 -- -- 49 1014.2 -- -- -- --
13:00 22.7 22.7 12.6 O 5.6 -- -- 53 1015 -- -- -- --
12:00 21.7 21.7 11.3 O 7.4 -- 35.2 52 1015.6(-0.4/3h) -- -- 0/6h
--
11:00 22.1 22.1 11.4 NO 14.8 -- -- 51 1015.8 -- -- -- --
10:00 22.3 22.3 12.1 NNO 18.5 -- -- 52 1015.9 -- -- -- --
09:00 21.6 21.6 13.5 N 3.7 -- 20.4 60 1016.1(-0.2/3h) -- -- -- --
08:00 21.2 21.2 12.0 SSO 3.7 -- -- 56 1016.2 -- -- -- --
07:00 19.1 19.1 11.4 S 1.9 -- -- 61 1016.6 -- -- -- --
06:00 17.9 17.9 12.7 ENE 1.9 -- 5.6 72 1016.9(0.0/3h) -- -- 0/12h
0/24h
--
05:00 16.0 16.0 13.6 SSE 1.9 -- -- 86 1017.4 -- -- -- --
04:00 14.8 14.8 13.2 ENE 0.0 -- -- 90 1017.5 -- -- -- --
03:00 15.1 15.1 13.1 SSE 1.9 -- 3.7 88 1017.3(-0.6/3h) -- -- -- --
02:00 15.2 15.2 12.8 E 1.9 -- -- 86 1017.3 -- -- -- --
01:00 15.6 15.6 13.6 S 0.0 -- -- 88 1017.6 -- -- -- --
00:00 16.5 16.5 12.9 ESE 0.0 -- 24.1 79 1017.7(-0.2/3h) -- -- 0/6h
--

1 Coordinated Universal Time. Actuellement il est 18:00 locale et 16:00 UTC.

2 Le vent souffle depuis la direction indiquée vers la direction oposée.

3 Les rafales max. sont disponible 40 min après l'heure du relevé.

4 Pour les stations d'altitude (plus de 600m) le géopotentiel du niveau le plus proche de la pression obligatoire est indiqué.

5 Les stations disposant d'un diffuseur peuvent indiquer "trace". Cela signifie que des précipitations ont touchés le sol mais que la quantité est inférieure à 0.1 mm.

Récapitulatif de la journée
Température [°C] Vent [km/h] Ensoleillement4 [h] Precipitations totale5 [mm] Pression [Hpa]
Min1 Max.2 Moy.3 Max. Min Max.
14.7 25.0 0 42.6 5 h 18 min 0 1014.0 1017.7

1 Température minimale relevée entre 18:00 UTC la veille et 18:00 UTC le jour donné.

2 Température maximale relevée entre 06:00 UTC le jour donné et 06:00 UTC le lendemain.

3 Vent moyen de la journée basé sur les relevés horaires.

4 Ensoleillement en heures relevé entre 06:00 UTC la veille et 06:00 UTC le jour donné.

5 Précipitations totales tombées entre 06:00 UTC la jour donné et 06:00 UTC le lendemain.

Graphiques horaires